Time;durP1;ratioP1;P1;durP2;ratioP2;P2;SDS_P1;SDS_P2;PMS_P1;PMS_P2;Temp;Humidity;BMP_temperature;BMP_pressure;BME280_temperature;BME280_humidity;BME280_pressure;Samples;Min_cycle;Max_cycle;Signal;HPM_P1;HPM_P2
2022/07/31 00:00:22;;;;;;;;;5.00;5.00;;;;;21.51;56.10;101755.31;4981396;28;8825;-65
2022/07/31 00:02:48;;;;;;;;;5.50;5.50;;;;;21.51;56.14;101741.63;4989863;28;9603;-66
2022/07/31 00:05:15;;;;;;;;;5.25;5.25;;;;;21.52;56.13;101746.06;4991387;28;8827;-66
2022/07/31 00:07:41;;;;;;;;;7.00;5.00;;;;;21.50;56.32;101745.44;4992205;28;8811;-67
2022/07/31 00:10:08;;;;;;;;;5.00;4.75;;;;;21.50;56.28;101745.44;4988396;28;8833;-66
2022/07/31 00:12:35;;;;;;;;;6.50;6.00;;;;;21.44;56.52;101744.53;4974375;28;8839;-66
2022/07/31 00:15:06;;;;;;;;;5.25;5.25;;;;;21.43;56.36;101742.88;4987836;28;9564;-66
2022/07/31 00:17:33;;;;;;;;;14.00;13.00;;;;;21.36;56.56;101738.63;4992209;28;8897;-66
2022/07/31 00:20:00;;;;;;;;;12.75;12.75;;;;;21.31;56.67;101746.69;4988539;28;9541;-66
2022/07/31 00:22:27;;;;;;;;;10.25;10.25;;;;;21.31;56.68;101741.19;4993312;28;8863;-66
2022/07/31 00:24:53;;;;;;;;;10.25;10.25;;;;;21.33;56.70;101742.66;4986036;28;9549;-66
2022/07/31 00:27:19;;;;;;;;;9.00;8.25;;;;;21.35;56.64;101734.19;4981768;28;8823;-67
2022/07/31 00:29:46;;;;;;;;;11.75;10.75;;;;;21.37;56.99;101721.09;4975740;28;8861;-65
2022/07/31 00:32:12;;;;;;;;;9.75;9.75;;;;;21.36;57.01;101716.72;4993579;28;8815;-66
2022/07/31 00:34:39;;;;;;;;;10.25;9.50;;;;;21.35;57.02;101715.03;4985134;28;8825;-67
2022/07/31 00:37:06;;;;;;;;;10.25;10.25;;;;;21.33;57.17;101712.53;4977392;28;8837;-66
2022/07/31 00:39:32;;;;;;;;;11.50;11.50;;;;;21.33;57.37;101717.19;4979454;28;8827;-65
2022/07/31 00:41:59;;;;;;;;;11.75;11.25;;;;;21.29;57.44;101718.72;4985224;28;8840;-66
2022/07/31 00:44:26;;;;;;;;;10.00;9.50;;;;;21.27;57.77;101712.63;4986218;28;8868;-66
2022/07/31 00:46:52;;;;;;;;;14.00;13.50;;;;;21.22;57.89;101714.19;4987888;28;8821;-66
2022/07/31 00:49:19;;;;;;;;;9.50;9.50;;;;;21.23;58.01;101698.63;4975735;28;8912;-66
2022/07/31 00:51:46;;;;;;;;;11.50;9.00;;;;;21.20;58.30;101694.47;4978950;28;8934;-65
2022/07/31 00:54:13;;;;;;;;;10.00;10.00;;;;;21.19;58.35;101690.06;4988636;28;8841;-66
2022/07/31 00:56:50;;;;;;;;;13.50;11.50;;;;;21.19;58.42;101697.47;4986549;28;8902;-65
2022/07/31 00:59:16;;;;;;;;;10.25;10.25;;;;;21.16;58.42;101701.50;4984548;28;8833;-66
2022/07/31 01:01:50;;;;;;;;;10.00;10.00;;;;;21.15;58.36;101691.63;4973083;28;8824;-66
2022/07/31 01:04:17;;;;;;;;;9.50;9.00;;;;;21.14;58.39;101694.59;4981899;28;9517;-65
2022/07/31 01:06:45;;;;;;;;;11.50;10.50;;;;;21.12;58.76;101694.84;4972030;28;8856;-66
2022/07/31 01:09:13;;;;;;;;;11.00;9.00;;;;;21.11;58.62;101697.84;4975925;28;8815;-66
2022/07/31 01:12:08;;;;;;;;;11.50;11.50;;;;;21.09;58.62;101699.97;4986821;28;8834;-66
2022/07/31 01:14:40;;;;;;;;;8.25;8.25;;;;;21.08;58.41;101690.94;4973749;28;8819;-66
2022/07/31 01:17:09;;;;;;;;;10.75;10.00;;;;;21.07;58.54;101693.94;5007230;28;8807;-66
2022/07/31 01:19:42;;;;;;;;;8.00;8.00;;;;;21.05;58.53;101693.34;5002765;28;9906;-65
2022/07/31 01:22:44;;;;;;;;;9.50;9.50;;;;;21.05;58.48;101690.59;4995249;28;8839;-66
2022/07/31 01:25:28;;;;;;;;;9.25;9.25;;;;;21.02;58.45;101683.69;4986791;28;8833;-67
2022/07/31 01:28:33;;;;;;;;;8.25;8.25;;;;;21.00;58.13;101685.84;4982474;28;8817;-65
2022/07/31 01:31:08;;;;;;;;;10.00;10.00;;;;;21.00;58.13;101696.81;4987530;28;8815;-65
2022/07/31 01:34:10;;;;;;;;;12.75;11.25;;;;;20.98;58.19;101698.94;4973138;28;8830;-66
2022/07/31 01:36:42;;;;;;;;;9.00;8.75;;;;;20.96;58.03;101693.72;4982836;28;8877;-66
2022/07/31 01:39:11;;;;;;;;;9.00;9.00;;;;;20.96;57.91;101690.16;4974427;28;8831;-64
2022/07/31 01:41:41;;;;;;;;;10.50;10.50;;;;;20.95;57.88;101688.50;5007165;28;9593;-66
2022/07/31 01:44:11;;;;;;;;;8.25;8.25;;;;;20.94;57.65;101695.03;5004327;28;8827;-65
2022/07/31 01:46:43;;;;;;;;;11.50;10.25;;;;;20.93;57.51;101687.88;4979640;28;9539;-65
2022/07/31 01:49:12;;;;;;;;;11.00;11.00;;;;;20.91;57.38;101682.66;4971579;28;8909;-65
2022/07/31 01:51:42;;;;;;;;;10.00;8.00;;;;;20.89;57.21;101682.06;4955287;28;8864;-65
2022/07/31 01:54:10;;;;;;;;;7.75;7.75;;;;;20.89;57.17;101675.78;4956419;28;8873;-61
2022/07/31 01:56:39;;;;;;;;;10.50;9.00;;;;;20.87;56.98;101678.75;4989487;28;8807;-64
2022/07/31 01:59:09;;;;;;;;;9.00;9.00;;;;;20.82;56.62;101677.81;4978258;28;9625;-66
2022/07/31 02:02:08;;;;;;;;;10.50;8.75;;;;;20.82;56.53;101677.81;4989532;28;8930;-67
2022/07/31 02:04:36;;;;;;;;;6.00;6.00;;;;;20.80;56.67;101678.06;4964224;28;8823;-66
2022/07/31 02:07:04;;;;;;;;;8.25;8.00;;;;;20.82;56.59;101672.31;4988724;28;8830;-66
2022/07/31 02:09:33;;;;;;;;;10.25;9.25;;;;;20.80;56.50;101669.84;4965584;28;8805;-65
2022/07/31 02:12:00;;;;;;;;;12.50;12.50;;;;;20.79;56.31;101664.63;4990335;28;8810;-66
2022/07/31 02:14:29;;;;;;;;;11.00;10.50;;;;;20.73;56.56;101664.50;4989881;28;8815;-65
2022/07/31 02:16:58;;;;;;;;;10.75;9.75;;;;;20.74;56.74;101676.28;5005149;28;8815;-66
2022/07/31 02:19:43;;;;;;;;;11.50;9.50;;;;;20.73;56.88;101666.41;4989574;28;8826;-66
2022/07/31 02:22:28;;;;;;;;;11.75;11.50;;;;;20.71;57.13;101665.84;4973843;28;9620;-66
2022/07/31 02:24:54;;;;;;;;;11.00;11.00;;;;;20.72;57.35;101662.00;4989449;28;8826;-67
2022/07/31 02:27:23;;;;;;;;;13.00;9.75;;;;;20.71;57.56;101650.25;4971667;28;8957;-67
2022/07/31 02:30:12;;;;;;;;;11.00;9.00;;;;;20.71;57.82;101655.72;4972788;28;8915;-66
2022/07/31 02:32:41;;;;;;;;;9.25;9.25;;;;;20.71;57.93;101650.25;4969800;28;8835;-66
2022/07/31 02:35:08;;;;;;;;;7.75;7.75;;;;;20.71;58.00;101649.41;4990521;28;8919;-67
2022/07/31 02:37:37;;;;;;;;;9.50;9.50;;;;;20.69;58.12;101657.84;4989814;28;8823;-67
2022/07/31 02:40:06;;;;;;;;;5.25;5.25;;;;;20.67;58.34;101646.34;4991051;28;8899;-66
2022/07/31 02:42:33;;;;;;;;;8.75;8.75;;;;;20.66;58.50;101632.88;4989821;28;9050;-66
2022/07/31 02:45:01;;;;;;;;;9.75;9.50;;;;;20.65;58.70;101634.78;4959503;28;8939;-65
2022/07/31 02:47:28;;;;;;;;;7.50;7.50;;;;;20.65;58.64;101631.22;4970385;28;8841;-65
2022/07/31 02:50:02;;;;;;;;;8.50;7.50;;;;;20.63;58.86;101633.38;4973829;28;8836;-67
2022/07/31 02:52:30;;;;;;;;;8.00;8.00;;;;;20.64;58.90;101635.03;4974547;28;8930;-66
2022/07/31 02:54:58;;;;;;;;;5.25;5.25;;;;;20.65;58.92;101634.78;4986740;28;8827;-66
2022/07/31 02:57:25;;;;;;;;;8.00;8.00;;;;;20.65;59.23;101626.56;4990694;28;8896;-66
2022/07/31 02:59:51;;;;;;;;;8.75;8.75;;;;;20.63;59.45;101633.38;4990680;28;8828;-66
2022/07/31 03:02:20;;;;;;;;;4.50;4.50;;;;;20.61;59.59;101622.66;4978222;28;8838;-66
2022/07/31 03:04:46;;;;;;;;;7.50;7.50;;;;;20.62;59.69;101618.88;4989710;28;8811;-66
2022/07/31 03:07:16;;;;;;;;;6.75;6.25;;;;;20.61;60.03;101622.66;4976959;28;8821;-65
2022/07/31 03:09:44;;;;;;;;;5.75;5.75;;;;;20.61;60.13;101619.94;4963100;28;8861;-65
2022/07/31 03:12:39;;;;;;;;;8.25;7.00;;;;;20.63;60.34;101622.44;4982421;28;8821;-65
2022/07/31 03:15:19;;;;;;;;;9.75;9.25;;;;;20.61;60.54;101616.38;4990786;28;8891;-65
2022/07/31 03:17:47;;;;;;;;;9.00;9.00;;;;;20.56;61.07;101608.06;4970222;28;8825;-65
2022/07/31 03:20:19;;;;;;;;;7.00;7.00;;;;;20.56;61.56;101610.78;4954267;28;8829;-63
2022/07/31 03:22:45;;;;;;;;;10.50;9.25;;;;;20.59;61.51;101616.63;4971321;28;8861;-65
2022/07/31 03:25:13;;;;;;;;;7.50;6.75;;;;;20.59;61.71;101602.94;4984470;28;8852;-65
2022/07/31 03:27:47;;;;;;;;;8.75;8.75;;;;;20.57;61.94;101609.72;4999849;28;8993;-64
2022/07/31 03:30:24;;;;;;;;;10.50;10.50;;;;;20.53;62.24;101609.38;4972667;28;8813;-66
2022/07/31 03:32:55;;;;;;;;;7.25;6.75;;;;;20.53;62.56;101603.06;4970512;28;8815;-65
2022/07/31 03:35:25;;;;;;;;;11.25;10.50;;;;;20.46;62.93;101604.03;4971183;28;8878;-66
2022/07/31 03:37:52;;;;;;;;;8.50;8.50;;;;;20.46;63.14;101603.19;4969987;28;8809;-65
2022/07/31 03:40:20;;;;;;;;;10.25;5.00;;;;;20.45;63.25;101606.97;4969376;28;9529;-64
2022/07/31 03:42:48;;;;;;;;;5.25;5.25;;;;;20.46;63.37;101605.94;4985220;28;8845;-66
2022/07/31 03:45:16;;;;;;;;;7.00;7.00;;;;;20.47;63.48;101604.84;4976255;28;9515;-66
2022/07/31 03:47:43;;;;;;;;;8.00;8.00;;;;;20.48;63.41;101601.03;4992791;28;8835;-66
2022/07/31 03:50:11;;;;;;;;;7.00;4.50;;;;;20.48;63.61;101598.28;4991426;28;8811;-65
2022/07/31 03:52:37;;;;;;;;;5.00;5.00;;;;;20.46;63.86;101587.59;4976187;28;9566;-65
2022/07/31 03:55:06;;;;;;;;;5.00;5.00;;;;;20.48;63.76;101598.28;5002386;28;8822;-66
2022/07/31 03:57:36;;;;;;;;;3.00;3.00;;;;;20.49;63.79;101594.50;4986930;28;8823;-66
2022/07/31 04:00:04;;;;;;;;;9.00;7.75;;;;;20.46;63.72;101595.81;4974921;28;9532;-66
2022/07/31 04:02:41;;;;;;;;;4.00;3.75;;;;;20.46;63.97;101594.97;5012939;28;8828;-65
2022/07/31 04:05:27;;;;;;;;;4.00;4.00;;;;;20.47;63.63;101588.44;4991981;28;8815;-65
2022/07/31 04:07:55;;;;;;;;;5.50;5.50;;;;;20.46;63.78;101593.06;4975731;28;9637;-64
2022/07/31 04:10:23;;;;;;;;;10.25;9.25;;;;;20.46;63.61;101598.53;4992643;28;8835;-64
2022/07/31 04:12:49;;;;;;;;;6.50;6.50;;;;;20.47;63.71;101596.63;4992709;28;8929;-66
2022/07/31 04:15:16;;;;;;;;;9.50;6.25;;;;;20.45;63.68;101593.31;4965002;28;8821;-66
2022/07/31 04:17:44;;;;;;;;;8.00;7.50;;;;;20.45;63.57;101593.31;4973035;28;8837;-64
2022/07/31 04:20:14;;;;;;;;;5.50;4.50;;;;;20.46;63.63;101592.25;4983675;28;8865;-65
2022/07/31 04:22:40;;;;;;;;;4.00;4.00;;;;;20.43;63.89;101593.56;4996726;28;8837;-65
2022/07/31 04:25:16;;;;;;;;;9.75;9.25;;;;;20.45;64.13;101601.50;4979018;28;8837;-65
2022/07/31 04:27:45;;;;;;;;;11.25;8.75;;;;;20.46;64.27;101605.94;4985258;28;8817;-66
2022/07/31 04:30:14;;;;;;;;;9.00;7.50;;;;;20.47;64.58;101599.38;4980069;28;8822;-65
2022/07/31 04:32:42;;;;;;;;;11.75;9.75;;;;;20.46;64.35;101598.53;4986408;28;8830;-65
2022/07/31 04:35:12;;;;;;;;;15.50;13.00;;;;;20.44;64.34;101591.66;4969697;28;8831;-67
2022/07/31 04:37:39;;;;;;;;;12.00;12.00;;;;;20.43;64.67;101590.81;4972165;28;8846;-68
2022/07/31 04:40:14;;;;;;;;;11.00;9.50;;;;;20.37;64.76;101583.56;4992183;28;8973;-65
2022/07/31 04:42:41;;;;;;;;;8.75;8.75;;;;;20.39;65.02;101577.88;4983565;28;8836;-65
2022/07/31 04:45:08;;;;;;;;;9.00;6.50;;;;;20.37;64.98;101572.63;5012074;28;8824;-65
2022/07/31 04:47:35;;;;;;;;;9.25;9.00;;;;;20.38;65.23;101582.50;4990054;28;8819;-65
2022/07/31 04:50:03;;;;;;;;;8.50;7.75;;;;;20.39;65.12;101583.34;4974648;28;8835;-67
2022/07/31 04:52:31;;;;;;;;;7.75;7.75;;;;;20.40;64.96;101582.25;4987939;28;8832;-67
2022/07/31 04:55:04;;;;;;;;;8.75;8.75;;;;;20.39;65.13;101586.91;4980000;28;9647;-67
2022/07/31 04:57:31;;;;;;;;;10.25;10.25;;;;;20.39;65.08;101583.34;4972105;28;8833;-67
2022/07/31 04:59:57;;;;;;;;;10.75;10.75;;;;;20.36;65.04;101575.63;4956196;28;8957;-68
2022/07/31 05:02:30;;;;;;;;;8.25;8.25;;;;;20.35;65.25;101576.69;4957028;28;8943;-65
2022/07/31 05:04:57;;;;;;;;;7.50;7.50;;;;;20.35;65.25;101573.97;4975301;28;9579;-66
2022/07/31 05:07:29;;;;;;;;;12.75;10.25;;;;;20.33;65.45;101571.44;4983035;28;8824;-65
2022/07/31 05:09:58;;;;;;;;;8.75;7.50;;;;;20.32;65.49;101571.69;5007842;28;9597;-65
2022/07/31 05:12:25;;;;;;;;;10.75;10.00;;;;;20.33;65.46;101570.63;4975232;28;8823;-65
2022/07/31 05:14:52;;;;;;;;;12.00;10.50;;;;;20.33;65.55;101570.63;5007185;28;8843;-65
2022/07/31 05:17:19;;;;;;;;;11.00;10.50;;;;;20.29;65.60;101567.53;4974878;28;8953;-65
2022/07/31 05:19:58;;;;;;;;;11.75;11.00;;;;;20.26;65.64;101573.50;4972707;28;8831;-66
2022/07/31 05:22:41;;;;;;;;;10.25;9.50;;;;;20.22;65.96;101570.41;4994544;28;8849;-65
2022/07/31 05:25:34;;;;;;;;;15.50;15.50;;;;;20.19;66.24;101576.38;4999649;28;8834;-66
2022/07/31 05:28:00;;;;;;;;;12.75;9.00;;;;;20.17;66.38;101578.50;4990985;28;8829;-66
2022/07/31 05:30:27;;;;;;;;;12.00;12.00;;;;;20.16;66.58;101579.56;4992518;28;8865;-66
2022/07/31 05:32:57;;;;;;;;;13.25;11.25;;;;;20.15;66.67;101572.44;4971847;28;8833;-65
2022/07/31 05:35:24;;;;;;;;;11.00;9.50;;;;;20.14;66.86;101573.53;4984971;28;8831;-66
2022/07/31 05:37:50;;;;;;;;;14.00;11.50;;;;;20.15;66.77;101569.72;4982346;28;8818;-64
2022/07/31 05:40:22;;;;;;;;;12.25;11.50;;;;;20.15;67.08;101572.44;4972333;28;8888;-64
2022/07/31 05:43:14;;;;;;;;;4.25;2.75;;;;;20.17;67.21;101578.50;4956841;28;8968;-65
2022/07/31 05:45:59;;;;;;;;;10.75;10.25;;;;;20.18;67.04;101574.72;4971498;28;10037;-66
2022/07/31 05:48:26;;;;;;;;;11.75;10.25;;;;;20.16;66.92;101573.28;4964712;28;8823;-66
2022/07/31 05:50:53;;;;;;;;;12.00;11.25;;;;;20.15;67.20;101572.44;4992264;28;8947;-65
2022/07/31 05:53:20;;;;;;;;;14.75;14.50;;;;;20.11;67.26;101574.00;5002292;28;8875;-65
2022/07/31 05:56:12;;;;;;;;;10.50;10.25;;;;;20.08;67.53;101565.44;4972445;28;8837;-67
2022/07/31 05:58:46;;;;;;;;;10.50;7.00;;;;;20.09;67.68;101562.47;4990289;28;8826;-67
2022/07/31 06:01:14;;;;;;;;;9.25;9.00;;;;;20.12;67.54;101563.91;4990014;28;8821;-66
2022/07/31 06:03:42;;;;;;;;;8.50;8.50;;;;;20.13;67.54;101565.53;4972288;28;8871;-66
2022/07/31 06:06:20;;;;;;;;;7.00;7.00;;;;;20.17;67.55;101556.63;4978519;28;8823;-67
2022/07/31 06:08:47;;;;;;;;;11.50;9.75;;;;;20.21;67.44;101560.53;4970117;28;8805;-65
2022/07/31 06:11:14;;;;;;;;;10.50;10.50;;;;;20.16;67.41;101557.69;4984576;28;8926;-65
2022/07/31 06:13:42;;;;;;;;;6.33;6.33;;;;;20.14;67.50;101559.03;4991395;28;8850;-66
2022/07/31 06:16:24;;;;;;;;;13.75;9.75;;;;;20.15;67.76;101555.22;4998659;28;8863;-67
2022/07/31 06:18:51;;;;;;;;;11.75;11.50;;;;;20.15;67.73;101561.50;4987876;28;8811;-65
2022/07/31 06:21:18;;;;;;;;;7.25;7.00;;;;;20.20;67.87;101560.78;4955998;28;8965;-66
2022/07/31 06:23:43;;;;;;;;;7.00;7.00;;;;;20.21;67.71;101567.91;4982681;28;8941;-67
2022/07/31 06:26:18;;;;;;;;;9.50;9.50;;;;;20.18;67.61;101568.41;4990204;28;8838;-66
2022/07/31 06:28:47;;;;;;;;;12.25;11.25;;;;;20.17;67.83;101561.25;4986478;28;8811;-68
2022/07/31 06:31:20;;;;;;;;;15.50;12.25;;;;;20.19;67.91;101559.97;4973300;28;8932;-67
2022/07/31 06:33:49;;;;;;;;;11.25;10.00;;;;;20.21;67.89;101560.53;4988735;28;8843;-67
2022/07/31 06:36:19;;;;;;;;;13.25;10.00;;;;;20.21;67.97;101556.97;4975685;28;8917;-66
2022/07/31 06:38:54;;;;;;;;;4.00;4.00;;;;;20.27;67.96;101555.19;4959880;28;9530;-66
2022/07/31 06:44:27;;;;;;;;;12.00;12.00;;;;;20.29;68.04;101559.34;4981736;28;9065;-67
2022/07/31 06:47:15;;;;;;;;;7.50;7.50;;;;;20.28;68.02;101560.41;4957186;28;8860;-67
2022/07/31 06:50:00;;;;;;;;;8.25;7.75;;;;;20.29;68.34;101561.25;4993394;28;8809;-67
2022/07/31 06:52:32;;;;;;;;;9.00;9.00;;;;;20.29;68.73;101558.50;4971528;28;8881;-66
2022/07/31 06:55:00;;;;;;;;;9.75;9.75;;;;;20.32;68.82;101563.50;4980731;28;8843;-66
2022/07/31 06:57:26;;;;;;;;;13.50;12.25;;;;;20.30;69.11;101560.19;4988210;28;8823;-67
2022/07/31 06:59:53;;;;;;;;;12.75;11.50;;;;;20.28;69.70;101557.69;4988937;28;8819;-67
2022/07/31 07:02:19;;;;;;;;;8.50;8.50;;;;;20.30;69.85;101563.75;4986021;28;9554;-66
2022/07/31 07:04:46;;;;;;;;;10.50;9.00;;;;;20.31;69.71;101564.56;4986533;28;8811;-66
2022/07/31 07:07:34;;;;;;;;;8.00;7.25;;;;;20.32;70.08;101568.97;4980269;28;8903;-65
2022/07/31 07:10:02;;;;;;;;;10.50;10.50;;;;;20.32;70.07;101566.22;4988570;28;8886;-66
2022/07/31 07:12:49;;;;;;;;;10.50;10.50;;;;;20.29;70.37;101563.97;4988481;28;8841;-67
2022/07/31 07:15:16;;;;;;;;;10.50;10.00;;;;;20.25;70.92;101552.69;4980404;28;8812;-66
2022/07/31 07:17:43;;;;;;;;;10.50;10.50;;;;;20.25;70.72;101553.53;4962966;28;8838;-66
2022/07/31 07:20:15;;;;;;;;;15.00;14.75;;;;;20.27;70.73;101545.09;4990161;28;8829;-67
2022/07/31 07:22:44;;;;;;;;;14.25;12.00;;;;;20.23;70.85;101547.47;4975936;28;8850;-66
2022/07/31 07:25:19;;;;;;;;;13.00;12.00;;;;;20.25;71.02;101552.69;4973363;28;8823;-66
2022/07/31 07:27:46;;;;;;;;;19.00;15.75;;;;;20.27;70.97;101544.25;4975446;28;8820;-67
2022/07/31 07:30:13;;;;;;;;;20.75;16.25;;;;;20.24;71.12;101548.28;4998379;28;8858;-67
2022/07/31 07:32:40;;;;;;;;;20.00;17.25;;;;;20.24;71.36;101540.09;4982134;28;8831;-66
2022/07/31 07:35:08;;;;;;;;;11.25;10.00;;;;;20.28;71.41;101540.44;4991474;28;8837;-64
2022/07/31 07:37:49;;;;;;;;;23.00;19.50;;;;;20.27;71.40;101541.53;4973433;28;8829;-67
2022/07/31 07:40:17;;;;;;;;;15.50;15.50;;;;;20.27;71.76;101536.88;4978975;28;8819;-66
2022/07/31 07:42:44;;;;;;;;;26.00;21.00;;;;;20.25;71.60;101539.88;4985211;28;8945;-67
2022/07/31 07:45:12;;;;;;;;;22.25;18.25;;;;;20.21;72.14;101530.47;4997571;28;8893;-66
2022/07/31 07:47:39;;;;;;;;;11.50;11.50;;;;;20.25;72.42;101539.88;4982502;28;8819;-66
2022/07/31 07:50:29;;;;;;;;;16.25;13.75;;;;;20.29;72.53;101532.00;4968115;28;8858;-67
2022/07/31 07:53:11;;;;;;;;;15.00;13.00;;;;;20.32;72.62;101533.41;4974758;28;8855;-66
2022/07/31 07:56:04;;;;;;;;;21.25;16.50;;;;;20.34;72.62;101534.03;4975389;28;8811;-67
2022/07/31 07:58:50;;;;;;;;;23.75;21.00;;;;;20.33;72.79;101532.34;4981602;28;9563;-66
2022/07/31 08:01:40;;;;;;;;;17.75;16.50;;;;;20.30;73.07;101536.41;4985508;28;8833;-66
2022/07/31 08:04:16;;;;;;;;;23.25;19.75;;;;;20.31;73.23;101539.97;5003335;28;9585;-65
2022/07/31 08:06:42;;;;;;;;;12.75;11.25;;;;;20.33;73.54;101527.69;4980467;28;8891;-66
2022/07/31 08:09:08;;;;;;;;;18.00;16.25;;;;;20.34;73.67;101534.84;4976933;28;8959;-66
2022/07/31 08:11:53;;;;;;;;;16.00;13.25;;;;;20.39;73.93;101536.84;4983922;28;8859;-65
2022/07/31 08:14:40;;;;;;;;;11.25;11.25;;;;;20.44;73.91;101526.84;4971730;28;8904;-66
2022/07/31 08:17:25;;;;;;;;;14.00;14.00;;;;;20.47;73.92;101515.41;4997571;28;8827;-66
2022/07/31 08:19:52;;;;;;;;;23.00;20.25;;;;;20.49;74.25;101520.66;5002467;28;8846;-66
2022/07/31 08:22:18;;;;;;;;;25.50;23.50;;;;;20.54;74.43;101514.47;4992882;28;8933;-67
2022/07/31 08:24:45;;;;;;;;;14.50;14.50;;;;;20.58;74.47;101519.22;5003451;28;8846;-66
2022/07/31 08:27:23;;;;;;;;;20.25;19.00;;;;;20.62;74.25;101517.66;4999291;28;8827;-67
2022/07/31 08:30:06;;;;;;;;;26.50;20.25;;;;;20.60;74.33;101517.06;4977333;28;8827;-66
2022/07/31 08:32:33;;;;;;;;;29.50;23.00;;;;;20.59;74.43;101515.41;4989231;28;8837;-65
2022/07/31 08:35:19;;;;;;;;;20.00;18.25;;;;;20.58;74.71;101523.84;4992578;28;8909;-67
2022/07/31 08:37:46;;;;;;;;;22.50;19.75;;;;;20.57;74.64;101525.75;4990700;28;9805;-67
2022/07/31 08:40:31;;;;;;;;;18.00;16.75;;;;;20.57;74.72;101528.47;4990967;28;8815;-65
2022/07/31 08:43:00;;;;;;;;;20.75;18.75;;;;;20.59;74.53;101522.78;4996029;28;8835;-65
2022/07/31 08:45:47;;;;;;;;;21.75;21.00;;;;;20.57;74.64;101519.44;4982608;28;8831;-66
2022/07/31 08:48:29;;;;;;;;;26.25;22.00;;;;;20.57;74.97;101531.22;4971858;28;9592;-65
2022/07/31 08:50:57;;;;;;;;;26.75;24.25;;;;;20.55;74.98;101527.09;4974934;28;8857;-65
2022/07/31 08:53:43;;;;;;;;;31.00;29.00;;;;;20.51;74.86;101523.19;4991790;28;8827;-65
2022/07/31 08:56:15;;;;;;;;;26.75;23.00;;;;;20.48;75.08;101519.84;4976133;28;9176;-65
2022/07/31 08:58:42;;;;;;;;;23.75;21.50;;;;;20.48;75.02;101525.31;4979517;28;8909;-63
2022/07/31 09:01:13;;;;;;;;;25.67;23.00;;;;;20.50;75.04;101533.28;4988848;28;8849;-65
2022/07/31 09:03:40;;;;;;;;;28.33;27.00;;;;;20.48;75.10;101518.97;4989214;28;8998;-66
2022/07/31 09:06:10;;;;;;;;;37.67;31.67;;;;;20.49;75.14;101524.22;4974156;28;8974;-65
2022/07/31 09:08:37;;;;;;;;;26.00;25.33;;;;;20.53;75.48;101531.94;4991959;28;9044;-65
2022/07/31 09:11:08;;;;;;;;;35.33;28.67;;;;;20.52;75.40;101520.19;4991015;28;8982;-66
2022/07/31 09:13:37;;;;;;;;;31.33;26.67;;;;;20.54;75.48;101518.06;4975679;28;8919;-68
2022/07/31 09:16:21;;;;;;;;;31.67;27.00;;;;;20.54;75.50;101518.06;4997438;28;8980;-65
2022/07/31 09:18:59;;;;;;;;;34.33;32.33;;;;;20.51;75.44;101507.59;4988449;28;9068;-65
2022/07/31 09:21:26;;;;;;;;;36.33;31.00;;;;;20.48;75.58;101508.03;4987224;28;9047;-66
2022/07/31 09:23:55;;;;;;;;;27.00;26.25;;;;;20.46;75.55;101500.09;4990802;28;9100;-66
2022/07/31 09:26:32;;;;;;;;;31.00;29.33;;;;;20.44;75.72;101504.97;4991244;28;8831;-66
2022/07/31 09:28:59;;;;;;;;;37.67;32.67;;;;;20.48;75.65;101502.56;4974246;28;8999;-66
2022/07/31 09:31:37;;;;;;;;;32.00;27.67;;;;;20.48;75.64;101506.16;4974705;28;9053;-66
2022/07/31 09:34:36;;;;;;;;;39.67;35.67;;;;;20.54;75.52;101511.72;4970251;28;8920;-66
2022/07/31 09:37:20;;;;;;;;;26.33;24.00;;;;;20.51;75.37;101502.13;4985522;28;9212;-66
2022/07/31 09:40:18;;;;;;;;;27.33;26.33;;;;;20.50;75.59;101508.69;4991974;28;8955;-66
2022/07/31 09:43:23;;;;;;;;;32.67;27.33;;;;;20.45;75.88;101509.34;4980187;28;9098;-66
2022/07/31 09:45:58;;;;;;;;;35.67;32.33;;;;;20.45;75.72;101509.34;5000272;28;9068;-67
2022/07/31 09:48:25;;;;;;;;;27.33;26.33;;;;;20.45;75.82;101505.78;4973585;28;9053;-66
2022/07/31 09:50:59;;;;;;;;;36.33;32.33;;;;;20.44;75.95;101506.88;4991321;28;9042;-66
2022/07/31 09:53:52;;;;;;;;;32.67;30.67;;;;;20.44;75.93;101509.59;4990075;28;9491;-66
2022/07/31 09:56:38;;;;;;;;;38.33;35.67;;;;;20.38;76.13;101505.13;4991012;28;9274;-64
2022/07/31 09:59:07;;;;;;;;;40.33;36.33;;;;;20.36;76.38;101515.47;4974342;28;9223;-65
2022/07/31 10:01:39;;;;;;;;;39.00;33.00;;;;;20.34;76.38;101503.94;4990984;28;9298;-66
2022/07/31 10:04:07;;;;;;;;;31.00;29.67;;;;;20.31;76.49;101508.00;4993435;28;9450;-66
2022/07/31 10:06:34;;;;;;;;;46.00;37.33;;;;;20.30;76.68;101502.78;4973620;28;9149;-67
2022/07/31 10:09:03;;;;;;;;;34.00;33.33;;;;;20.30;76.85;101500.88;4989415;28;9222;-66
2022/07/31 10:11:50;;;;;;;;;41.00;35.00;;;;;20.32;76.72;101501.44;4990757;28;9134;-66
2022/07/31 10:14:26;;;;;;;;;34.67;31.67;;;;;20.36;76.86;101499.88;4989819;28;9277;-67
2022/07/31 10:16:56;;;;;;;;;30.33;29.00;;;;;20.37;76.78;101495.22;4973284;28;9990;-66
2022/07/31 10:19:47;;;;;;;;;39.75;37.25;;;;;20.30;76.91;101506.34;4972374;28;9163;-66
2022/07/31 10:22:24;;;;;;;;;42.50;35.75;;;;;20.30;77.04;101495.41;4971188;28;9433;-66
2022/07/31 10:24:53;;;;;;;;;36.00;30.67;;;;;20.25;77.10;101493.41;4990936;28;9516;-65
2022/07/31 10:27:20;;;;;;;;;31.33;29.00;;;;;20.25;77.44;101493.41;4988960;28;9280;-66
2022/07/31 10:30:05;;;;;;;;;34.50;32.00;;;;;20.24;77.45;101496.34;4978909;28;9161;-66
2022/07/31 10:32:34;;;;;;;;;41.75;37.50;;;;;20.20;77.27;101495.19;4986419;28;10360;-66
2022/07/31 10:35:39;;;;;;;;;43.00;39.00;;;;;20.12;77.63;101498.28;4990841;28;9367;-63
2022/07/31 10:38:34;;;;;;;;;33.00;30.00;;;;;20.12;77.89;101496.38;4970676;28;9563;-66
2022/07/31 10:41:35;;;;;;;;;38.00;34.00;;;;;20.11;77.78;101500.19;4972965;28;9392;-66
2022/07/31 10:44:12;;;;;;;;;39.50;34.75;;;;;20.08;78.02;101484.28;4979470;28;9591;-65
2022/07/31 10:47:13;;;;;;;;;41.00;37.75;;;;;20.06;78.38;101497.38;4983783;28;9722;-65
2022/07/31 10:50:05;;;;;;;;;39.50;34.50;;;;;20.08;78.46;101484.28;4988219;28;10284;-65
2022/07/31 10:52:46;;;;;;;;;41.75;36.75;;;;;20.06;78.66;101486.44;4979945;28;9645;-66
2022/07/31 10:55:28;;;;;;;;;49.50;39.00;;;;;20.08;78.46;101487.00;4980063;28;10353;-65
2022/07/31 10:58:20;;;;;;;;;34.00;30.00;;;;;20.02;78.40;101488.00;4970973;28;9694;-64
2022/07/31 11:01:06;;;;;;;;;38.33;35.67;;;;;20.05;78.54;101482.03;4989505;28;9505;-67
2022/07/31 11:03:57;;;;;;;;;40.50;36.00;;;;;20.08;78.44;101484.28;4987880;28;9299;-66
2022/07/31 11:06:43;;;;;;;;;32.00;32.00;;;;;20.07;78.44;101488.09;4972857;28;9424;-66
2022/07/31 11:09:28;;;;;;;;;48.00;40.50;;;;;19.98;78.56;101495.84;4988872;28;9431;-66
2022/07/31 11:12:25;;;;;;;;;33.67;31.00;;;;;19.98;78.67;101489.53;4977494;28;9605;-67
2022/07/31 11:15:23;;;;;;;;;32.00;28.67;;;;;20.02;78.69;101496.19;4982414;28;9245;-66
2022/07/31 11:18:19;;;;;;;;;24.33;23.00;;;;;20.02;78.66;101484.44;4988633;28;9050;-67
2022/07/31 11:21:08;;;;;;;;;21.67;19.33;;;;;20.05;78.99;101483.94;4988096;28;8906;-67
2022/07/31 11:23:54;;;;;;;;;21.00;21.00;;;;;20.12;78.63;101481.88;4987394;28;9068;-67
2022/07/31 11:26:30;;;;;;;;;27.00;24.33;;;;;20.15;78.47;101487.72;4987245;28;8835;-66
2022/07/31 11:29:06;;;;;;;;;24.50;23.75;;;;;20.20;78.37;101481.50;4995627;28;9060;-67
2022/07/31 11:31:53;;;;;;;;;19.25;16.50;;;;;20.24;78.12;101478.03;4989128;28;8796;-65
2022/07/31 11:34:20;;;;;;;;;25.67;22.67;;;;;20.27;78.08;101479.47;4989990;28;8837;-65
2022/07/31 11:36:46;;;;;;;;;25.25;23.25;;;;;20.28;77.88;101481.13;4996721;28;8907;-66
2022/07/31 11:39:17;;;;;;;;;24.00;22.75;;;;;20.31;77.90;101477.09;4993671;28;8836;-67
2022/07/31 11:41:43;;;;;;;;;19.00;17.00;;;;;20.31;77.86;101466.16;4989693;28;8825;-67
2022/07/31 11:44:11;;;;;;;;;14.50;14.50;;;;;20.36;77.86;101478.00;4998109;28;8909;-67
2022/07/31 11:46:37;;;;;;;;;17.50;16.75;;;;;20.39;77.71;101473.97;4983963;28;8908;-67
2022/07/31 11:49:04;;;;;;;;;17.75;14.00;;;;;20.39;77.79;101479.44;4997907;28;8886;-67
2022/07/31 11:51:31;;;;;;;;;11.75;11.50;;;;;20.41;77.78;101477.25;4971167;28;8840;-66
2022/07/31 11:53:58;;;;;;;;;16.25;10.50;;;;;20.42;77.76;101470.75;4971477;28;8845;-67